Weather reports worldwide

Advertisment
St.Peter-Ording, Germany (10028): temperature & dewpoint: 06.11.2019 16:00:00 - 12.11.2019 16:00:00 (CET)St.Peter-Ording, Germany (10028): temperature 5cm & temperature -5cm: 06.11.2019 16:00:00 - 12.11.2019 16:00:00 (CET)St.Peter-Ording, Germany (10028): temperature -20cm & temperature -100cm: 06.11.2019 16:00:00 - 12.11.2019 16:00:00 (CET)St.Peter-Ording, Germany (10028): wind speed & gusts: 06.11.2019 16:00:00 - 12.11.2019 16:00:00 (CET)St.Peter-Ording, Germany (10028): wind direction: 06.11.2019 16:00:00 - 12.11.2019 16:00:00 (CET)St.Peter-Ording, Germany (10028): visibility: 06.11.2019 16:00:00 - 12.11.2019 16:00:00 (CET)St.Peter-Ording, Germany (10028): sunshine duration: 06.11.2019 16:00:00 - 12.11.2019 16:00:00 (CET)St.Peter-Ording, Germany (10028): precipitation: 06.11.2019 16:00:00 - 12.11.2019 16:00:00 (CET)
Date & Time tt [°C] td [°C] tt 5cm [°C] tt -5cm [°C] tt -20cm [°C] tt -100cm [°C] ff [km/h] ff [kn] fx [km/h] fx [kn] dd vv [km] sd [min] rr [mm]
12.11.2019 16:00:00 6,6 2,6 6,2 5,9 6,5 9,8 29 16 47 26 S 35 0 0,0
12.11.2019 15:00:00 6,7 2,7 6,7 6,3 6,5 9,8 29 16 49 27 S 30 3 0,0
12.11.2019 14:00:00 6,8 2,4 6,8 6,3 6,4 9,8 37 20 55 30 SSW 25 3 0,0
12.11.2019 13:00:00 6,5 2,6 6,6 6,2 6,3 9,8 37 20 59 32 SSW 21 0 0,0
12.11.2019 12:00:00 6,6 3,0 6,8 6,3 6,2 9,8 40 22 67 36 SSW 24 0 0,0
12.11.2019 11:00:00 6,6 3,8 6,7 5,9 6,1 9,8 45 24 64 34 SSW 18 0 0,0
12.11.2019 10:00:00 5,4 3,5 5,0 5,3 6,1 9,8 36 19 55 30 S 25 0 0,0
12.11.2019 09:00:00 6,0 2,7 5,9 5,3 6,1 9,8 38 20 55 30 SSW 38 0 0,0
12.11.2019 08:00:00 6,1 3,1 5,9 5,3 6,1 9,8 39 21 58 31 SSW 30 0 0,0
12.11.2019 07:00:00 6,3 2,9 6,1 5,2 6,1 9,8 38 20 58 31 SSW 33 0 0,0
12.11.2019 06:00:00 6,3 3,4 6,1 5,4 6,0 9,8 41 22 58 31 SSW 28 0 0,0
12.11.2019 05:00:00 6,4 4,0 6,3 5,4 6,0 9,8 34 18 53 29 S 24 0 0,0
12.11.2019 04:00:00 6,7 4,1 6,6 5,5 5,9 9,9 38 21 57 31 SSW 23 0 0,0
12.11.2019 03:00:00 6,4 4,4 6,3 5,4 5,9 9,9 37 20 59 32 S 17 0 0,0
12.11.2019 02:00:00 6,3 4,0 6,1 5,2 5,8 9,9 36 20 56 31 S 16 0 0,0
12.11.2019 01:00:00 6,0 3,3 5,9 4,9 5,8 9,9 32 18 54 29 S 19 0 0,0
12.11.2019 00:00:00 5,7 3,0 5,2 4,7 5,8 9,9 31 17 53 28 S 18 0 0,1
11.11.2019 23:00:00 5,3 3,0 4,5 4,4 5,8 9,9 31 17 49 27 S 15 0 0,1
11.11.2019 22:00:00 4,6 1,8 4,4 4,1 5,9 9,9 30 16 47 25 SSE 21 0 0,0
11.11.2019 21:00:00 4,5 1,5 4,2 4,0 6,0 9,9 28 15 52 28 SSE 23 0 0,0
11.11.2019 20:00:00 4,1 1,3 3,4 3,7 6,2 9,9 30 16 53 29 SSE 23 0 0,0
11.11.2019 19:00:00 4,7 2,3 4,5 4,5 6,3 9,9 23 13 46 25 SSE 26 0 0,0
11.11.2019 18:00:00 4,9 2,1 4,5 4,6 6,4 9,9 27 15 60 32 SSE 36 0 0,0
11.11.2019 17:00:00 5,5 2,2 5,3 5,2 6,5 9,9 29 15 49 27 SSE 32 0 0,0
11.11.2019 16:00:00 5,6 2,6 5,5 5,8 6,5 9,9 29 16 44 24 SSE 26 0 0,0
11.11.2019 15:00:00 5,6 2,3 5,7 6,0 6,5 9,9 27 14 47 25 SSE 27 0 0,0
11.11.2019 14:00:00 5,3 2,7 5,4 6,2 6,4 9,9 23 13 40 22 SSE 27 0 0,0
11.11.2019 13:00:00 5,0 2,4 5,4 6,9 6,1 9,9 24 13 38 21 SSE 21 40 0,0
11.11.2019 12:00:00 5,0 2,6 5,7 6,4 5,9 9,9 24 13 39 21 SSE 17 11 0,0
11.11.2019 11:00:00 4,2 2,6 4,6 5,2 5,9 9,9 24 13 42 23 SSE 12 3 0,0
11.11.2019 10:00:00 3,5 2,0 3,4 4,2 5,9 9,9 24 13 35 19 SSE 10 11 0,0
11.11.2019 09:00:00 2,9 2,0 2,4 3,3 6,1 9,9 19 11 36 19 SSE 5 0 0,0
11.11.2019 08:00:00 3,3 2,5 2,4 3,6 6,4 9,9 18 10 29 16 SSE 4,4 0 0,0
11.11.2019 07:00:00 5,3 3,5 4,4 4,4 6,5 9,9 19 11 35 19 S 8 0 0,0
11.11.2019 06:00:00 5,6 3,4 5,0 4,8 6,7 9,9 24 13 37 20 S 8 0 0,0
11.11.2019 05:00:00 6,3 4,1 5,4 5,3 6,8 10,0 26 14 37 20 SSW 9 0 0,0
11.11.2019 04:00:00 7,2 4,5 6,7 6,2 6,8 10,0 28 15 41 22 SSW 13 0 0,0
11.11.2019 03:00:00 7,7 4,8 7,2 6,0 6,8 10,0 31 17 42 23 SW 16 0 0,0
11.11.2019 02:00:00 7,8 6,3 7,2 6,1 6,8 10,0 31 17 44 24 SW 10 0 0,0
11.11.2019 01:00:00 7,9 6,2 7,4 6,3 6,8 10,0 29 16 39 21 SW 10 0 0,0
11.11.2019 00:00:00 7,7 6,2 6,9 6,0 6,9 10,0 31 17 42 23 SW 10 0 0,0
10.11.2019 23:00:00 7,9 6,5 7,0 6,0 6,9 10,0 30 16 40 22 SW 9 0 0,0
10.11.2019 22:00:00 7,9 6,2 7,4 6,2 6,9 10,0 31 17 46 25 SW 12 0 0,1
10.11.2019 21:00:00 7,9 6,9 7,2 6,5 7,0 10,0 28 15 44 24 SSW 6 0 0,9
10.11.2019 20:00:00 8,0 6,0 7,3 6,3 7,0 10,0 32 18 46 25 SSW 12 0 0,0
10.11.2019 19:00:00 7,9 6,0 7,8 6,6 7,0 10,0 30 16 44 24 SSW 12 0 0,0
10.11.2019 18:00:00 7,6 5,8 6,9 6,5 7,0 10,0 31 17 45 24 SSW 12 0 0,1
10.11.2019 17:00:00 7,8 5,2 7,6 6,8 7,0 10,0 27 15 39 21 SSW 16 0 0,1
10.11.2019 16:00:00 7,3 5,3 6,9 7,0 6,9 10,0 22 12 35 19 S 16 0 0,0
10.11.2019 15:00:00 7,3 5,9 7,0 7,3 6,8 10,0 23 13 36 19 S 10 0 0,0
10.11.2019 14:00:00 7,0 5,3 6,7 7,2 6,7 10,0 24 13 35 19 S 10 0 0,0
10.11.2019 13:00:00 6,7 5,1 6,4 6,7 6,5 10,0 20 11 31 17 S 13 0 0,3
10.11.2019 12:00:00 6,7 5,1 6,5 6,9 6,4 10,0 19 11 31 17 S 10 0 0,0
10.11.2019 11:00:00 6,0 4,5 6,0 6,3 6,2 10,1 16 9 26 14 S 12 0 0,0
10.11.2019 10:00:00 5,3 4,8 5,3 5,8 6,2 10,1 14 8 24 13 SSE 4,7 0 0,1
10.11.2019 09:00:00 4,8 4,2 4,8 5,2 6,2 10,1 14 8 23 13 SSE 5 0 1,1
10.11.2019 08:00:00 4,7 4,0 4,4 5,2 6,2 10,1 16 8 26 14 SSE 5 0 0,0
10.11.2019 07:00:00 4,9 4,2 4,6 5,2 6,2 10,1 17 9 24 13 SSE 6 0 0,7
10.11.2019 06:00:00 5,6 4,0 5,0 5,2 6,2 10,1 13 7 22 12 S 14 0 0,0
10.11.2019 05:00:00 5,8 4,3 5,3 5,3 6,2 10,1 13 7 23 12 SSE 15 0 0,0
10.11.2019 04:00:00 5,7 4,7 5,3 5,4 6,2 10,1 12 6 19 10 SSE 11 0 0,0
10.11.2019 03:00:00 5,8 5,1 5,5 5,3 6,1 10,1 11 6 23 12 SSE 4,8 0 0,0
10.11.2019 02:00:00 5,2 4,4 5,0 5,1 6,2 10,1 13 7 19 10 ESE 5 0 0,0
10.11.2019 01:00:00 5,9 4,6 5,1 4,9 6,2 10,1 13 7 22 12 SSE 9 0 0,0
10.11.2019 00:00:00 5,9 4,7 4,9 4,8 6,2 10,2 12 6 23 13 SSE 9 0 0,0
09.11.2019 23:00:00 6,2 4,9 5,6 5,1 6,3 10,2 14 7 23 13 SSE 10 0 0,0
09.11.2019 22:00:00 5,5 4,9 5,0 5,0 6,4 10,2 12 6 20 11 SE 2,9 0 0,0
09.11.2019 21:00:00 5,7 5,0 5,2 5,3 6,4 10,2 12 7 19 10 SE 3,3 0 0,0
09.11.2019 20:00:00 5,8 5,2 5,5 5,3 6,5 10,2 11 6 21 11 SSE 3,7 0 0,0
09.11.2019 19:00:00 5,5 4,4 4,4 5,5 6,6 10,2 13 7 23 12 S 8 0 0,0
09.11.2019 18:00:00 5,6 5,2 5,1 5,5 6,7 10,2 10 6 17 9 SE 3,3 0 0,0
09.11.2019 17:00:00 5,2 5,0 5,0 6,1 6,7 10,2 12 6 23 12 SE 1,9 0 0,0
09.11.2019 16:00:00 5,0 4,8 5,2 6,8 6,6 10,3 14 8 23 13 SSE 2,5 0 0,0
09.11.2019 15:00:00 5,1 4,7 5,4 7,6 6,3 10,3 11 6 21 11 SE 1,8 0 0,0
09.11.2019 14:00:00 5,6 5,3 6,4 7,9 6,0 10,3 10 5 19 10 SSE 6 0 0,0
09.11.2019 13:00:00 5,6 5,6 6,4 7,8 5,5 10,3 10 5 19 11 SSE 0,4 0 0,0
09.11.2019 12:00:00 6,3 6,3 7,1 7,1 5,1 10,3 9 5 18 10 SSE 1,1 0 0,0
09.11.2019 11:00:00 5,6 5,6 6,1 5,4 4,8 10,3 12 6 18 10 S 0,1 6 0,0
09.11.2019 10:00:00 4,3 4,3 4,3 3,4 4,7 10,3 7 4 16 8 SSE 0,2 3 0,0
09.11.2019 09:00:00 1,9 1,9 1,7 2,2 4,7 10,3 11 6 14 7 ESE 0,1 0 0,0
09.11.2019 08:00:00 1,8 1,8 1,2 1,8 4,8 10,3 9 5 13 7 ESE 0,2 0 0,0
09.11.2019 07:00:00 2,1 2,1 1,0 1,9 5,0 10,3 8 5 14 7 SE 0,1 0 0,0
09.11.2019 06:00:00 4,2 4,2 0,6 2,0 5,1 10,3 7 4 13 7 S 6 0 0,0
09.11.2019 05:00:00 4,0 4,0 1,2 2,1 5,2 10,3 10 5 13 7 SSE 5 0 0,0
09.11.2019 04:00:00 2,0 2,0 1,4 2,1 5,4 10,3 11 6 14 8 ESE 0,2 0 0,0
09.11.2019 03:00:00 2,4 2,4 0,3 2,3 5,6 10,3 8 4 12 6 SSE 6 0 0,0
09.11.2019 02:00:00 3,2 3,1 2,2 2,8 5,7 10,3 10 6 13 7 ESE 3,3 0 0,0
09.11.2019 01:00:00 3,1 3,0 2,1 2,5 5,9 10,4 9 5 10 6 ESE 1,0 0 0,0
09.11.2019 00:00:00 2,7 2,6 0,8 2,3 6,2 10,4 8 4 10 5 ESE 0,2 0 0,0
08.11.2019 23:00:00 2,5 2,4 -0,2 2,6 6,6 10,4 8 4 11 6 SE 1,7 0 0,0
08.11.2019 22:00:00 3,4 3,2 -0,3 3,1 6,9 10,4 9 5 14 7 SE 6 0 0,0
08.11.2019 21:00:00 4,2 3,8 1,3 3,7 7,2 10,4 10 6 15 8 SE 14 0 0,0
08.11.2019 20:00:00 5,8 4,7 4,1 4,5 7,5 10,4 12 6 21 11 SSE 20 0 0,0
08.11.2019 19:00:00 6,0 5,0 4,5 4,8 7,9 10,4 12 7 19 10 SE 19 0 0,0
08.11.2019 18:00:00 5,8 4,6 2,8 5,6 8,2 10,4 11 6 15 8 SSE 25 0 0,0
08.11.2019 17:00:00 6,6 5,2 4,6 6,9 8,5 10,4 10 5 16 9 SE 22 23 0,0
08.11.2019 16:00:00 8,1 4,7 7,4 8,7 8,5 10,4 9 5 22 12 SSE 28 60 0,0
08.11.2019 15:00:00 8,5 4,9 9,2 10,2 8,2 10,4 14 8 23 13 SSE 26 60 0,0
08.11.2019 14:00:00 9,0 5,3 9,9 10,8 7,9 10,4 13 7 22 12 S 25 60 0,0
08.11.2019 13:00:00 9,5 5,7 10,4 10,4 7,4 10,4 17 9 27 15 SSW 28 60 0,0
08.11.2019 12:00:00 9,3 5,7 10,2 9,3 7,1 10,4 19 11 31 17 SSW 24 60 0,0
08.11.2019 11:00:00 8,8 5,6 9,1 7,2 7,0 10,4 24 13 34 19 SSW 28 60 0,0
08.11.2019 10:00:00 8,2 5,5 7,4 6,4 7,0 10,5 25 14 36 19 SSW 25 60 0,0
08.11.2019 09:00:00 7,2 5,4 6,4 6,0 7,1 10,5 24 13 37 20 SSW 21 19 0,0
08.11.2019 08:00:00 7,1 5,3 6,7 6,3 7,1 10,5 24 13 37 20 SSW 20 0 0,0
08.11.2019 07:00:00 6,5 5,2 6,2 6,3 7,1 10,5 24 13 34 18 S 16 0 0,0
08.11.2019 06:00:00 7,0 5,6 6,7 6,6 7,1 10,5 19 11 34 18 S 18 0 0,0
08.11.2019 05:00:00 7,4 5,4 7,2 6,7 7,1 10,5 23 13 34 18 SSW 21 0 0,0
08.11.2019 04:00:00 7,8 5,6 7,7 6,8 7,0 10,5 23 13 34 19 SSW 22 0 0,0
08.11.2019 03:00:00 8,2 6,2 8,0 6,9 6,9 10,5 24 13 39 21 SW 18 0 0,0
08.11.2019 02:00:00 8,4 6,4 8,0 6,7 6,8 10,5 31 17 44 24 SW 17 0 0,0
08.11.2019 01:00:00 8,8 6,8 8,4 6,8 6,7 10,5 28 15 42 23 SSW 15 0 0,0
08.11.2019 00:00:00 8,4 7,3 7,8 6,2 6,6 10,6 19 10 33 18 SSW 19 0 0,0
07.11.2019 23:00:00 6,0 5,8 6,0 5,9 6,6 10,6 17 9 24 13 E 5 0 1,7
07.11.2019 22:00:00 5,5 5,3 5,4 5,6 6,6 10,6 18 10 27 15 E 4,3 0 1,9
07.11.2019 21:00:00 5,2 4,9 5,2 5,5 6,6 10,6 19 10 29 16 E 3,8 0 1,1
07.11.2019 20:00:00 5,0 4,5 4,9 5,4 6,7 10,6 21 11 32 17 E 5 0 0,8
07.11.2019 19:00:00 5,0 4,1 5,0 5,4 6,7 10,6 22 12 34 18 E 7 0 0,0
07.11.2019 18:00:00 5,0 3,9 5,0 5,5 6,8 10,6 22 12 34 18 ESE 10 0 0,0
07.11.2019 17:00:00 4,7 3,8 4,8 5,6 6,8 10,7 20 11 31 17 E 10 0 0,0
07.11.2019 16:00:00 4,7 3,8 4,8 6,1 6,8 10,7 21 11 30 16 E 15 0 0,0
07.11.2019 15:00:00 5,0 3,9 5,3 6,8 6,7 10,7 19 11 29 16 E 19 13 0,0
07.11.2019 14:00:00 5,3 3,9 7,0 8,0 6,4 10,7 18 10 28 15 E 10 11 0,0
07.11.2019 13:00:00 4,9 4,2 5,3 7,2 6,0 10,7 18 10 24 13 E 16 25 0,0
07.11.2019 12:00:00 3,8 3,8 4,8 5,7 5,9 10,7 16 9 23 12 E 7 0 0,0
07.11.2019 11:00:00 2,6 2,6 3,2 5,0 5,7 10,7 15 8 22 12 E 0,2 0 0,0
07.11.2019 10:00:00 2,3 2,3 3,0 4,5 5,6 10,7 14 8 19 11 ESE 0,1 0 0,0
07.11.2019 09:00:00 1,8 1,8 2,0 3,4 5,7 10,7 14 8 20 11 ESE 0,1 0 0,0
07.11.2019 08:00:00 2,3 2,2 2,2 3,1 5,7 10,7 13 7 17 9 ESE 0,1 0 0,0
07.11.2019 07:00:00 3,4 3,3 3,2 3,6 5,8 10,7 9 5 15 8 ESE 8 0 0,0
07.11.2019 06:00:00 3,2 3,2 3,0 3,4 5,8 10,8 13 7 17 9 ESE 6 0 0,0
07.11.2019 05:00:00 2,7 2,6 2,3 3,1 5,9 10,8 8 5 11 6 E 4,7 0 0,0
07.11.2019 04:00:00 3,4 3,4 1,9 2,7 6,0 10,8 8 4 11 6 SE 12 0 0,0
07.11.2019 03:00:00 1,6 1,6 -1,3 1,7 6,4 10,8 10 5 11 6 SE 9 0 0,0
07.11.2019 02:00:00 1,2 1,2 -2,1 2,0 6,7 10,8 9 5 10 5 SE 3,6 0 0,0
07.11.2019 01:00:00 2,1 2,1 -1,6 2,7 7,1 10,8 8 4 10 5 SE 6 0 0,0
07.11.2019 00:00:00 2,3 2,3 -0,8 3,4 7,5 10,8 6 3 9 5 ESE 10 0 0,0
06.11.2019 23:00:00 3,2 3,0 -0,5 4,5 7,7 10,8 7 4 9 5 ESE 16 0 0,0
06.11.2019 22:00:00 4,5 4,2 3,9 5,4 7,9 10,8 5 3 8 5 ESE 28 0 0,0
06.11.2019 21:00:00 4,6 4,5 4,1 5,7 8,1 10,8 7 4 8 4 E 26 0 0,0
06.11.2019 20:00:00 4,6 4,5 4,0 6,1 8,3 10,8 4 2 5 3 E 34 0 0,0
06.11.2019 19:00:00 4,9 4,2 4,1 6,4 8,6 10,8 4 2 6 4 ESE 40 0 0,0
06.11.2019 18:00:00 4,3 3,9 3,1 6,5 8,8 10,8 5 3 7 4 WNW 66 0 0,0
06.11.2019 17:00:00 5,7 4,0 4,3 7,8 9,0 10,8 6 3 10 6 NW 70 0 0,0
06.11.2019 16:00:00 6,7 4,2 7,0 9,0 9,0 10,8 5 3 9 5 W 68 2 0,0

tt = temperature
td = dewpoint
tt 5cm = temperature 5cm
tt -5cm = temperature -5cm
tt -20cm = temperature -20cm
tt -100cm = temperature -100cm
ff = wind speed
fx = gusts
dd = wind direction
vv = visibility
sd = sunshine duration
rr = precipitation

Next stations